createdAt,value
2023-08-12T00:03:28.527Z,4.10
2023-08-12T00:08:31.802Z,3.60
2023-08-12T00:13:34.997Z,4.10
2023-08-12T00:18:38.227Z,3.90
2023-08-12T00:23:42.017Z,3.70
2023-08-12T00:28:44.669Z,4.00
2023-08-12T00:33:47.380Z,4.10
2023-08-12T00:38:50.671Z,4.20
2023-08-12T00:43:53.277Z,4.00
2023-08-12T00:48:55.930Z,3.60
2023-08-12T00:54:00.283Z,3.90
2023-08-12T00:59:06.204Z,6.20
2023-08-12T01:09:11.976Z,5.30
2023-08-12T01:14:20.420Z,4.90
2023-08-12T01:19:37.638Z,4.20
2023-08-12T01:24:45.002Z,4.30
2023-08-12T01:29:50.625Z,3.70
2023-08-12T01:35:07.814Z,3.30
2023-08-12T01:40:12.626Z,3.30
2023-08-12T01:45:15.640Z,3.80
2023-08-12T01:50:20.104Z,3.50
2023-08-12T01:55:22.780Z,3.30
2023-08-12T02:00:25.785Z,3.20
2023-08-12T02:05:28.447Z,3.20
2023-08-12T02:10:31.466Z,3.10
2023-08-12T02:15:34.116Z,2.90
2023-08-12T02:20:36.797Z,3.10
2023-08-12T02:25:39.482Z,3.40
2023-08-12T02:30:44.514Z,3.20
2023-08-12T02:35:47.143Z,2.90
2023-08-12T02:40:50.874Z,3.00
2023-08-12T02:45:53.792Z,3.40
2023-08-12T02:50:56.808Z,3.30
2023-08-12T02:55:59.477Z,2.80
2023-08-12T03:01:02.182Z,2.80
2023-08-12T03:06:04.857Z,3.10
2023-08-12T03:11:07.515Z,3.60
2023-08-12T03:16:14.957Z,3.80
2023-08-12T03:21:17.525Z,3.90
2023-08-12T03:26:20.166Z,3.50
2023-08-12T03:31:22.892Z,4.70
2023-08-12T03:36:25.584Z,4.60
2023-08-12T03:41:28.424Z,3.70
2023-08-12T03:46:31.206Z,3.50
2023-08-12T03:51:33.975Z,3.80
2023-08-12T03:56:36.635Z,4.10
2023-08-12T04:01:39.324Z,3.50
2023-08-12T04:06:41.945Z,3.70
2023-08-12T04:11:46.355Z,4.50
2023-08-12T04:16:49.488Z,4.00
2023-08-12T04:21:52.395Z,4.00
2023-08-12T04:26:55.046Z,3.70
2023-08-12T04:31:57.735Z,3.30
2023-08-12T04:37:00.304Z,3.50
2023-08-12T04:42:03.088Z,3.80
2023-08-12T04:47:06.118Z,4.00
2023-08-12T04:52:09.242Z,4.00
2023-08-12T04:57:12.145Z,3.50
2023-08-12T05:02:15.086Z,3.30
2023-08-12T05:07:18.688Z,3.50
2023-08-12T05:12:21.407Z,3.70
2023-08-12T05:17:24.130Z,3.70
2023-08-12T05:22:26.753Z,3.80
2023-08-12T05:27:29.481Z,3.50
2023-08-12T05:32:32.065Z,3.50
2023-08-12T05:37:34.812Z,3.80
2023-08-12T05:42:37.649Z,4.50
2023-08-12T05:47:40.547Z,4.40
2023-08-12T05:52:44.982Z,4.60
2023-08-12T05:57:48.003Z,4.20
2023-08-12T06:02:52.735Z,4.00
2023-08-12T06:07:55.724Z,3.80
2023-08-12T06:12:58.391Z,3.10
2023-08-12T06:18:02.136Z,2.70
2023-08-12T06:23:04.930Z,2.60
2023-08-12T06:28:09.692Z,2.40
2023-08-12T06:33:12.349Z,2.20
2023-08-12T06:38:15.144Z,1.90
2023-08-12T06:43:17.928Z,2.00
2023-08-12T06:48:20.610Z,2.40
2023-08-12T06:53:23.666Z,2.10
2023-08-12T06:58:26.464Z,2.10
2023-08-12T07:03:29.239Z,2.40
2023-08-12T07:08:33.308Z,2.40
2023-08-12T07:13:36.181Z,2.00
2023-08-12T07:18:39.166Z,3.10
2023-08-12T07:23:48.656Z,1.70
2023-08-12T07:28:57.612Z,2.00
2023-08-12T07:34:00.383Z,2.10
2023-08-12T07:39:03.282Z,2.10
2023-08-12T07:44:06.105Z,2.00
2023-08-12T07:49:08.802Z,2.00
2023-08-12T07:54:11.470Z,2.50
2023-08-12T07:59:14.094Z,1.90
2023-08-12T08:04:16.754Z,2.10
2023-08-12T08:09:19.323Z,2.00
2023-08-12T08:14:22.043Z,2.80
2023-08-12T08:19:29.937Z,2.30
2023-08-12T08:24:32.917Z,2.50
2023-08-12T08:29:35.567Z,2.30
2023-08-12T08:34:38.275Z,2.30
2023-08-12T08:39:40.929Z,2.10
2023-08-12T08:44:44.588Z,2.20
2023-08-12T08:49:47.737Z,2.00
2023-08-12T08:59:58.636Z,2.00
2023-08-12T09:05:03.593Z,2.00
2023-08-12T09:10:07.883Z,1.90
2023-08-12T09:15:11.651Z,1.90
2023-08-12T09:20:14.375Z,2.00
2023-08-12T09:25:21.375Z,1.90
2023-08-12T09:30:24.120Z,2.00
2023-08-12T09:35:36.872Z,1.80
2023-08-12T09:40:40.707Z,2.10
2023-08-12T09:45:46.983Z,1.90
2023-08-12T09:50:51.093Z,1.90
2023-08-12T09:55:55.243Z,1.90
2023-08-12T10:00:58.511Z,2.20
2023-08-12T10:06:04.265Z,2.00
2023-08-12T10:11:13.358Z,2.00
2023-08-12T10:16:18.262Z,1.70
2023-08-12T10:21:23.935Z,1.80
2023-08-12T10:26:26.713Z,1.80
2023-08-12T10:31:30.303Z,1.90
2023-08-12T10:36:33.190Z,2.10
2023-08-12T10:41:37.282Z,1.90
2023-08-12T10:46:40.170Z,1.90
2023-08-12T10:51:48.788Z,2.00
2023-08-12T10:57:06.957Z,2.00
2023-08-12T11:02:17.105Z,2.10
2023-08-12T11:07:22.101Z,1.90
2023-08-12T11:12:32.215Z,2.10
2023-08-12T11:17:43.072Z,2.00
2023-08-12T11:22:45.859Z,2.20
2023-08-12T11:27:49.357Z,2.10
2023-08-12T11:32:56.943Z,2.30
2023-08-12T11:38:00.207Z,2.00
2023-08-12T11:43:04.537Z,2.10
2023-08-12T11:48:11.110Z,1.90
2023-08-12T11:53:13.855Z,1.90
2023-08-12T11:58:21.453Z,2.40
2023-08-12T12:03:28.997Z,2.10
2023-08-12T12:08:35.004Z,2.20
2023-08-12T12:13:37.922Z,2.10
2023-08-12T12:18:40.620Z,2.00
2023-08-12T12:23:43.307Z,2.00
2023-08-12T12:28:45.995Z,2.20
2023-08-12T12:33:48.698Z,1.90
2023-08-12T12:38:51.368Z,2.20
2023-08-12T12:43:54.094Z,2.10
2023-08-12T12:48:56.830Z,2.00
2023-08-12T12:53:59.492Z,1.90
2023-08-12T12:59:02.230Z,1.90
2023-08-12T13:04:05.088Z,2.20
2023-08-12T13:09:07.826Z,1.80
2023-08-12T13:14:10.567Z,2.10
2023-08-12T13:19:13.227Z,2.00
2023-08-12T13:24:16.513Z,1.70
2023-08-12T13:29:19.213Z,2.10
2023-08-12T13:34:21.895Z,1.90
2023-08-12T13:39:24.556Z,1.80
2023-08-12T13:44:27.295Z,1.90
2023-08-12T13:49:32.652Z,2.10
2023-08-12T13:54:35.258Z,1.90
2023-08-12T14:04:40.522Z,2.00
2023-08-12T14:09:43.668Z,2.00
2023-08-12T14:14:46.851Z,1.70
2023-08-12T14:19:50.920Z,1.90
2023-08-12T14:24:53.950Z,1.60
2023-08-12T14:29:56.615Z,1.70
2023-08-12T14:34:59.298Z,2.10
2023-08-12T14:40:02.643Z,1.80
2023-08-12T14:45:05.740Z,2.00
2023-08-12T14:50:09.763Z,2.10
2023-08-12T14:55:12.417Z,1.80
2023-08-12T15:00:15.728Z,1.80
2023-08-12T15:05:18.613Z,1.60
2023-08-12T15:10:21.428Z,1.60
2023-08-12T15:15:24.031Z,1.60
2023-08-12T15:20:26.930Z,1.70
2023-08-12T15:25:29.631Z,1.90
2023-08-12T15:30:32.547Z,1.80
2023-08-12T15:35:35.397Z,1.60
2023-08-12T15:40:39.863Z,1.60
2023-08-12T15:45:43.569Z,1.50
2023-08-12T15:50:48.927Z,1.80
2023-08-12T15:55:52.943Z,1.60
2023-08-12T16:00:55.730Z,1.80
2023-08-12T16:06:01.701Z,1.70
2023-08-12T16:11:04.760Z,1.80
2023-08-12T16:16:07.572Z,1.70
2023-08-12T16:21:10.330Z,1.80
2023-08-12T16:26:13.101Z,1.80
2023-08-12T16:31:15.805Z,1.80
2023-08-12T16:36:18.670Z,1.90
2023-08-12T16:41:21.445Z,2.20
2023-08-12T16:51:27.863Z,2.30
2023-08-12T17:01:33.476Z,2.70
2023-08-12T17:06:36.451Z,4.00
2023-08-12T17:11:39.230Z,4.10
2023-08-12T17:16:41.982Z,3.80
2023-08-12T17:21:44.989Z,4.30
2023-08-12T17:26:47.865Z,3.90
2023-08-12T17:31:50.515Z,5.40
2023-08-12T17:36:53.485Z,12.20
2023-08-12T17:41:56.178Z,11.60
2023-08-12T17:47:00.378Z,9.40
2023-08-12T17:52:03.204Z,6.90
2023-08-12T17:57:05.870Z,8.20
2023-08-12T18:02:08.610Z,17.80
2023-08-12T18:07:11.637Z,16.70
2023-08-12T18:12:14.576Z,13.50
2023-08-12T18:17:17.623Z,11.30
2023-08-12T18:22:20.557Z,9.50
2023-08-12T18:27:23.227Z,13.80
2023-08-12T18:32:29.369Z,10.60
2023-08-12T18:37:32.612Z,8.80
2023-08-12T18:42:36.840Z,7.70
2023-08-12T18:47:39.609Z,9.20
2023-08-12T18:52:42.444Z,8.50
2023-08-12T18:57:45.164Z,9.30
2023-08-12T19:02:47.816Z,10.20
2023-08-12T19:07:50.575Z,12.80
2023-08-12T19:12:53.264Z,12.00
2023-08-12T19:17:55.984Z,8.50
2023-08-12T19:22:58.777Z,6.40
2023-08-12T19:28:01.458Z,7.80
2023-08-12T19:33:04.824Z,8.20
2023-08-12T19:38:15.325Z,6.50
2023-08-12T19:43:18.014Z,7.30
2023-08-12T19:48:21.098Z,5.80
2023-08-12T19:53:24.777Z,5.30
2023-08-12T19:58:27.446Z,5.20
2023-08-12T20:03:30.462Z,4.50
2023-08-12T20:08:33.283Z,4.50
2023-08-12T20:13:36.038Z,4.10
2023-08-12T20:18:38.732Z,4.70
2023-08-12T20:23:42.450Z,4.70
2023-08-12T20:28:45.074Z,4.50
2023-08-12T20:33:47.740Z,4.20
2023-08-12T20:38:50.590Z,4.70
2023-08-12T20:43:53.285Z,4.90
2023-08-12T20:48:55.945Z,4.70
2023-08-12T20:53:58.583Z,4.30
2023-08-12T20:59:01.373Z,5.50
2023-08-12T21:04:04.265Z,5.30
2023-08-12T21:09:07.083Z,4.60
2023-08-12T21:14:09.793Z,5.40
2023-08-12T21:19:14.375Z,4.20
2023-08-12T21:24:16.973Z,4.20
2023-08-12T21:29:21.418Z,4.00
2023-08-12T21:34:24.213Z,4.80
2023-08-12T21:39:26.884Z,4.00
2023-08-12T21:44:29.752Z,3.70
2023-08-12T21:49:32.621Z,4.00
2023-08-12T21:54:35.261Z,4.10
2023-08-12T21:59:37.956Z,3.70
2023-08-12T22:04:40.655Z,4.80
2023-08-12T22:09:43.254Z,5.30
2023-08-12T22:14:46.348Z,4.30
2023-08-12T22:19:49.855Z,3.90
2023-08-12T22:24:52.602Z,4.20
2023-08-12T22:29:55.274Z,3.40
2023-08-12T22:34:57.933Z,3.40
2023-08-12T22:40:00.644Z,3.40
2023-08-12T22:45:05.216Z,3.60
2023-08-12T22:50:10.452Z,3.40
2023-08-12T23:00:16.252Z,3.10
2023-08-12T23:05:19.382Z,3.30
2023-08-12T23:10:22.230Z,3.30
2023-08-12T23:15:24.953Z,3.50
2023-08-12T23:20:27.660Z,3.50
2023-08-12T23:25:30.534Z,3.20
2023-08-12T23:30:33.361Z,3.40
2023-08-12T23:35:36.338Z,3.20
2023-08-12T23:40:40.314Z,2.90
2023-08-12T23:45:42.922Z,3.30
2023-08-12T23:50:45.633Z,2.90
2023-08-12T23:55:50.998Z,2.70
